Time;durP1;ratioP1;P1;durP2;ratioP2;P2;SDS_P1;SDS_P2;PMS_P1;PMS_P2;Temp;Humidity;BMP_temperature;BMP_pressure;BME280_temperature;BME280_humidity;BME280_pressure;Samples;Min_cycle;Max_cycle;Signal;HPM_P1;HPM_P2
2024/03/10 00:00:39;;;;;;;26.20;13.63;;;9.40;93.50;;;;;;5058177;28;20033;-81
2024/03/10 00:03:08;;;;;;;28.85;15.02;;;9.40;93.40;;;;;;5060575;28;20035;-81
2024/03/10 00:05:35;;;;;;;23.35;12.27;;;9.40;93.30;;;;;;5056990;28;20039;-81
2024/03/10 00:08:01;;;;;;;27.80;14.90;;;9.40;93.30;;;;;;5053339;28;20037;-81
2024/03/10 00:10:27;;;;;;;29.38;15.02;;;9.40;93.50;;;;;;5061446;28;20029;-81
2024/03/10 00:12:52;;;;;;;30.33;14.48;;;9.30;93.60;;;;;;5060783;28;20545;-81
2024/03/10 00:15:19;;;;;;;26.58;13.60;;;9.30;93.50;;;;;;5057770;28;20033;-82
2024/03/10 00:17:45;;;;;;;24.25;11.65;;;9.30;93.60;;;;;;5066025;28;20028;-82
2024/03/10 00:20:11;;;;;;;23.27;10.95;;;9.30;93.40;;;;;;5057360;28;20722;-81
2024/03/10 00:22:38;;;;;;;18.13;8.32;;;9.20;93.50;;;;;;5064280;28;20029;-82
2024/03/10 00:25:08;;;;;;;27.90;14.45;;;9.20;93.50;;;;;;5057274;28;20032;-81
2024/03/10 00:27:38;;;;;;;28.45;13.38;;;9.20;93.60;;;;;;5052001;28;20045;-82
2024/03/10 00:30:05;;;;;;;35.30;14.95;;;9.10;93.70;;;;;;5066761;28;20495;-81
2024/03/10 00:32:33;;;;;;;28.35;12.50;;;9.10;93.80;;;;;;5052788;28;20044;-81
2024/03/10 00:35:01;;;;;;;23.65;11.95;;;9.10;93.80;;;;;;5067338;28;20024;-81
2024/03/10 00:37:27;;;;;;;31.38;15.00;;;9.10;93.70;;;;;;5051827;28;20388;-81
2024/03/10 00:39:56;;;;;;;27.20;12.63;;;9.20;93.80;;;;;;5048177;28;20033;-81
2024/03/10 00:42:22;;;;;;;33.15;15.85;;;9.10;93.80;;;;;;5063620;28;20040;-81
2024/03/10 00:44:47;;;;;;;30.83;14.77;;;9.00;93.70;;;;;;5057830;28;20436;-82
2024/03/10 00:47:13;;;;;;;28.33;14.32;;;9.10;93.80;;;;;;5064594;28;20068;-81
2024/03/10 00:49:39;;;;;;;23.17;10.45;;;9.10;93.70;;;;;;5056246;28;20036;-81
2024/03/10 00:52:07;;;;;;;30.33;12.02;;;9.10;93.60;;;;;;5053030;28;20037;-81
2024/03/10 00:54:42;;;;;;;21.13;10.45;;;9.00;93.80;;;;;;5063424;28;20043;-82
2024/03/10 00:57:08;;;;;;;30.38;15.25;;;9.00;93.80;;;;;;5059791;28;20054;-82
2024/03/10 00:59:34;;;;;;;31.10;15.00;;;9.00;94.00;;;;;;5050841;28;20032;-82
2024/03/10 01:02:00;;;;;;;28.88;13.38;;;9.00;93.90;;;;;;5059158;28;20029;-81
2024/03/10 01:04:26;;;;;;;37.90;18.17;;;9.00;93.70;;;;;;5055427;28;20051;-81
2024/03/10 01:06:51;;;;;;;17.60;7.45;;;9.00;94.00;;;;;;5056671;28;20119;-81
2024/03/10 01:09:18;;;;;;;20.20;9.80;;;9.00;93.70;;;;;;5046935;28;20395;-82
2024/03/10 01:11:47;;;;;;;28.88;13.98;;;9.00;93.80;;;;;;5048503;28;20120;-81
2024/03/10 01:14:14;;;;;;;38.33;17.48;;;9.00;93.90;;;;;;5065996;28;20040;-81
2024/03/10 01:16:46;;;;;;;30.98;14.23;;;9.00;93.90;;;;;;5068123;28;20036;-82
2024/03/10 01:19:12;;;;;;;42.50;21.58;;;9.00;93.80;;;;;;5047155;28;20025;-81
2024/03/10 01:21:38;;;;;;;29.33;13.60;;;9.00;94.00;;;;;;5048213;28;20047;-80
2024/03/10 01:24:04;;;;;;;35.30;17.17;;;8.90;93.80;;;;;;5059169;28;20021;-81
2024/03/10 01:26:30;;;;;;;39.53;18.35;;;8.90;94.00;;;;;;5062471;28;20029;-82
2024/03/10 01:28:56;;;;;;;34.65;16.20;;;8.90;94.00;;;;;;5055565;28;20106;-81
2024/03/10 01:31:26;;;;;;;37.85;16.98;;;8.90;94.00;;;;;;5065161;28;20032;-81
2024/03/10 01:33:52;;;;;;;44.08;20.00;;;9.00;93.90;;;;;;5063787;28;20047;-81
2024/03/10 01:36:17;;;;;;;34.75;15.15;;;9.00;93.90;;;;;;5065427;28;20020;-82
2024/03/10 01:38:43;;;;;;;40.90;19.65;;;9.00;93.90;;;;;;5065914;28;20483;-82
2024/03/10 01:41:12;;;;;;;33.05;16.52;;;9.00;93.80;;;;;;5069172;28;20435;-81
2024/03/10 01:43:40;;;;;;;42.33;19.95;;;9.00;93.90;;;;;;5058078;28;20484;-81
2024/03/10 01:46:08;;;;;;;42.38;19.60;;;9.00;93.90;;;;;;5059154;28;20468;-81
2024/03/10 01:48:37;;;;;;;45.88;21.45;;;9.00;93.90;;;;;;5062532;28;20654;-82
2024/03/10 01:51:06;;;;;;;40.30;19.90;;;9.00;93.90;;;;;;5061240;28;20522;-81
2024/03/10 01:53:37;;;;;;;34.60;17.63;;;9.00;93.90;;;;;;5067780;28;20090;-81
2024/03/10 01:56:07;;;;;;;37.78;19.08;;;9.00;93.90;;;;;;5066948;28;20028;-81
2024/03/10 01:58:35;;;;;;;37.28;18.52;;;8.90;94.00;;;;;;5063764;28;20051;-81
2024/03/10 02:01:03;;;;;;;36.65;18.23;;;8.90;93.90;;;;;;5052971;28;20025;-81
2024/03/10 02:03:29;;;;;;;41.17;21.02;;;8.90;94.00;;;;;;5054765;28;20089;-81
2024/03/10 02:05:55;;;;;;;33.30;15.18;;;8.90;94.00;;;;;;5064767;28;20115;-81
2024/03/10 02:08:21;;;;;;;46.75;20.17;;;8.90;93.90;;;;;;5057459;28;20111;-81
2024/03/10 02:10:48;;;;;;;35.45;15.50;;;8.90;94.00;;;;;;5066376;28;20056;-81
2024/03/10 02:13:17;;;;;;;35.25;16.42;;;8.90;94.00;;;;;;5053805;28;20051;-81
2024/03/10 02:15:43;;;;;;;38.33;18.27;;;8.90;94.00;;;;;;5068116;28;20399;-81
2024/03/10 02:18:12;;;;;;;28.80;13.57;;;8.80;94.00;;;;;;5070225;28;20071;-81
2024/03/10 02:20:38;;;;;;;29.65;14.40;;;8.80;94.20;;;;;;5056479;28;20024;-81
2024/03/10 02:23:05;;;;;;;30.67;13.55;;;8.90;94.20;;;;;;5062970;28;20037;-82
2024/03/10 02:25:41;;;;;;;29.08;11.27;;;8.80;94.10;;;;;;5055914;28;20025;-81
2024/03/10 02:28:20;;;;;;;39.30;18.23;;;8.80;94.20;;;;;;5070676;28;20127;-81
2024/03/10 02:47:11;;;;;;;42.03;20.08;;;8.80;94.30;;;;;;5050105;28;20396;-81
2024/03/10 02:47:17;;;;;;;32.90;16.83;;;8.70;94.50;;;;;;5059111;28;20028;-81
2024/03/10 02:49:43;;;;;;;32.35;14.43;;;8.70;94.40;;;;;;5055317;28;20037;-81
2024/03/10 02:52:09;;;;;;;46.53;21.70;;;8.70;94.60;;;;;;5062923;28;20105;-82
2024/03/10 02:54:39;;;;;;;46.58;20.65;;;8.70;94.60;;;;;;5050037;28;20392;-82
2024/03/10 02:57:06;;;;;;;26.33;13.43;;;8.60;94.60;;;;;;5061605;28;20388;-82
2024/03/10 02:59:32;;;;;;;41.78;20.73;;;8.60;94.60;;;;;;5065652;28;20766;-81
2024/03/10 03:01:58;;;;;;;45.17;19.52;;;8.60;94.60;;;;;;5062080;28;20036;-81
2024/03/10 03:04:28;;;;;;;27.83;13.70;;;8.50;94.70;;;;;;5062606;28;20070;-82
2024/03/10 03:06:57;;;;;;;33.85;13.57;;;8.60;94.60;;;;;;5051487;28;20040;-81
2024/03/10 03:09:23;;;;;;;37.53;17.92;;;8.60;94.60;;;;;;5060693;28;20044;-81
2024/03/10 03:11:49;;;;;;;45.08;19.88;;;8.60;94.70;;;;;;5068045;28;20028;-81
2024/03/10 03:14:15;;;;;;;39.97;21.15;;;8.60;94.70;;;;;;5064073;28;20045;-81
2024/03/10 03:16:44;;;;;;;41.15;18.00;;;8.60;94.80;;;;;;5052961;28;20037;-81
2024/03/10 03:19:13;;;;;;;30.20;13.50;;;8.60;94.60;;;;;;5055757;28;20538;-81
2024/03/10 03:21:39;;;;;;;38.30;18.65;;;8.70;94.60;;;;;;5064517;28;20036;-81
2024/03/10 03:24:08;;;;;;;39.05;18.35;;;8.70;94.50;;;;;;5068037;28;20028;-81
2024/03/10 03:26:36;;;;;;;33.38;16.33;;;8.70;94.60;;;;;;5053826;28;20033;-81
2024/03/10 03:29:04;;;;;;;38.47;20.05;;;8.60;94.60;;;;;;5065156;28;20450;-81
2024/03/10 03:31:33;;;;;;;36.00;16.83;;;8.60;94.80;;;;;;5057559;28;20033;-81
2024/03/10 03:33:59;;;;;;;41.35;19.33;;;8.60;94.70;;;;;;5053219;28;20071;-81
2024/03/10 03:36:25;;;;;;;43.00;19.98;;;8.60;94.70;;;;;;5061324;28;20067;-81
2024/03/10 03:38:51;;;;;;;35.67;17.58;;;8.60;94.80;;;;;;5063980;28;20041;-81
2024/03/10 03:41:17;;;;;;;34.33;16.75;;;8.60;94.60;;;;;;5066925;28;20039;-81
2024/03/10 03:43:43;;;;;;;52.00;20.08;;;8.60;94.80;;;;;;5064164;28;20040;-81
2024/03/10 03:46:09;;;;;;;15.90;8.15;;;8.60;94.80;;;;;;5057693;28;20068;-81
2024/03/10 03:48:36;;;;;;;28.38;13.13;;;8.60;94.70;;;;;;5068091;28;20435;-81
2024/03/10 03:51:02;;;;;;;43.75;22.15;;;8.60;94.80;;;;;;5055482;28;20032;-81
2024/03/10 03:53:28;;;;;;;43.40;20.77;;;8.60;94.80;;;;;;5068356;28;20077;-81
2024/03/10 03:55:54;;;;;;;47.88;21.88;;;8.50;94.80;;;;;;5063683;28;20033;-81
2024/03/10 03:58:21;;;;;;;39.13;18.35;;;8.50;94.70;;;;;;5051112;28;20056;-81
2024/03/10 04:00:47;;;;;;;51.10;20.38;;;8.50;95.00;;;;;;5057126;28;20056;-81
2024/03/10 04:03:13;;;;;;;41.40;19.27;;;8.40;94.90;;;;;;5060121;28;20041;-81
2024/03/10 04:05:40;;;;;;;45.25;20.60;;;8.40;95.10;;;;;;5054132;28;20036;-81
2024/03/10 04:08:11;;;;;;;33.05;17.48;;;8.40;95.00;;;;;;5058346;28;20029;-81
2024/03/10 04:10:37;;;;;;;45.17;20.85;;;8.40;95.00;;;;;;5051225;28;20104;-82
2024/03/10 04:13:05;;;;;;;45.75;21.38;;;8.40;95.40;;;;;;5068098;28;20629;-81
2024/03/10 04:15:35;;;;;;;42.83;17.20;;;8.50;95.00;;;;;;5060488;28;20036;-81
2024/03/10 04:18:06;;;;;;;17.52;9.07;;;8.50;94.80;;;;;;5060592;28;20032;-81
2024/03/10 04:20:33;;;;;;;39.17;19.23;;;8.50;94.60;;;;;;5060012;28;20039;-81
2024/03/10 04:22:59;;;;;;;46.67;22.63;;;8.50;95.00;;;;;;5060372;28;20108;-81
2024/03/10 04:25:25;;;;;;;45.70;21.20;;;8.50;94.90;;;;;;5067324;28;20033;-81
2024/03/10 04:27:52;;;;;;;44.40;22.48;;;8.50;94.90;;;;;;5062512;28;20040;-81
2024/03/10 04:30:19;;;;;;;40.50;18.17;;;8.40;94.90;;;;;;5054060;28;20029;-81
2024/03/10 04:32:45;;;;;;;27.52;11.98;;;8.40;94.90;;;;;;5066756;28;20036;-81
2024/03/10 04:35:11;;;;;;;36.90;17.30;;;8.40;94.90;;;;;;5064690;28;20024;-81
2024/03/10 04:37:38;;;;;;;43.40;21.88;;;8.30;95.20;;;;;;5068001;28;20399;-81
2024/03/10 04:40:06;;;;;;;44.58;22.92;;;8.30;95.30;;;;;;5062015;28;20127;-81
2024/03/10 04:42:34;;;;;;;37.50;19.55;;;8.30;95.20;;;;;;5066195;28;20421;-81
2024/03/10 04:44:59;;;;;;;45.40;21.63;;;8.30;95.10;;;;;;5056775;28;20111;-81
2024/03/10 04:47:26;;;;;;;40.60;18.90;;;8.10;95.40;;;;;;5052611;28;20112;-81
2024/03/10 04:49:52;;;;;;;43.92;21.30;;;8.10;95.40;;;;;;5063046;28;20057;-81
2024/03/10 04:52:17;;;;;;;38.78;17.95;;;8.10;95.40;;;;;;5068321;28;20044;-81
2024/03/10 04:54:45;;;;;;;44.55;19.50;;;8.10;95.50;;;;;;5050617;28;20036;-82
2024/03/10 04:57:11;;;;;;;38.85;18.98;;;8.20;95.50;;;;;;5058542;28;20039;-81
2024/03/10 04:59:37;;;;;;;43.15;20.77;;;8.20;95.50;;;;;;5051178;28;20028;-81
2024/03/10 05:02:02;;;;;;;41.90;18.50;;;8.20;95.50;;;;;;5048551;28;20024;-81
2024/03/10 05:04:28;;;;;;;38.53;18.10;;;8.20;95.50;;;;;;5061216;28;20036;-81
2024/03/10 05:06:55;;;;;;;44.15;21.35;;;8.20;95.60;;;;;;5057165;28;20527;-81
2024/03/10 05:09:21;;;;;;;37.50;16.02;;;8.10;95.40;;;;;;5063964;28;20123;-81
2024/03/10 05:11:47;;;;;;;30.23;13.75;;;8.10;95.50;;;;;;5057309;28;20107;-81
2024/03/10 05:14:15;;;;;;;22.08;10.82;;;8.20;95.50;;;;;;5058524;28;20056;-82
2024/03/10 05:16:42;;;;;;;37.33;17.42;;;8.20;95.80;;;;;;5056682;28;20115;-81
2024/03/10 05:19:08;;;;;;;31.60;14.10;;;8.20;95.50;;;;;;5048496;28;20113;-81
2024/03/10 05:21:34;;;;;;;43.47;18.33;;;8.20;95.40;;;;;;5056125;28;20107;-81
2024/03/10 05:23:59;;;;;;;25.20;12.70;;;8.20;95.40;;;;;;5061995;28;20025;-81
2024/03/10 05:26:25;;;;;;;54.33;23.63;;;8.20;95.30;;;;;;5049239;28;20065;-80
2024/03/10 05:28:50;;;;;;;35.28;16.67;;;8.20;95.50;;;;;;5061571;28;20502;-81
2024/03/10 05:31:31;;;;;;;26.35;13.13;;;8.30;95.30;;;;;;5053277;28;20033;-80
2024/03/10 05:34:00;;;;;;;37.45;15.10;;;8.20;95.30;;;;;;5057391;28;20098;-80
2024/03/10 05:36:26;;;;;;;36.70;17.85;;;8.20;95.40;;;;;;5062813;28;20388;-80
2024/03/10 05:38:52;;;;;;;41.22;20.02;;;8.20;95.40;;;;;;5057773;28;20051;-80
2024/03/10 05:41:18;;;;;;;49.42;22.15;;;8.20;95.50;;;;;;5063984;28;20037;-80
2024/03/10 05:43:44;;;;;;;36.15;14.80;;;8.20;95.50;;;;;;5066028;28;20079;-81
2024/03/10 05:46:12;;;;;;;20.75;11.60;;;8.10;95.50;;;;;;5063861;28;20078;-81
2024/03/10 05:48:41;;;;;;;49.28;22.80;;;8.10;95.50;;;;;;5064418;28;20044;-81
2024/03/10 05:51:11;;;;;;;41.42;19.58;;;8.00;95.70;;;;;;5054632;28;20093;-81
2024/03/10 05:53:37;;;;;;;37.30;18.08;;;7.90;95.90;;;;;;5060149;28;20082;-81
2024/03/10 05:56:12;;;;;;;40.78;19.15;;;7.90;96.10;;;;;;5046454;28;20041;-81
2024/03/10 05:58:38;;;;;;;33.47;15.98;;;7.90;96.10;;;;;;5060853;28;20037;-80
2024/03/10 06:01:05;;;;;;;44.80;21.88;;;8.00;96.00;;;;;;5054113;28;20077;-80
2024/03/10 06:03:31;;;;;;;31.70;15.82;;;8.00;96.00;;;;;;5066286;28;20036;-81
2024/03/10 06:05:56;;;;;;;47.83;22.33;;;8.00;95.80;;;;;;5056649;28;20461;-79
2024/03/10 06:08:23;;;;;;;38.28;19.65;;;8.00;95.90;;;;;;5047293;28;20147;-79
2024/03/10 06:10:49;;;;;;;44.10;21.42;;;7.90;95.90;;;;;;5054238;28;20396;-72
2024/03/10 06:13:16;;;;;;;44.38;20.73;;;7.80;96.10;;;;;;5064700;28;20044;-81
2024/03/10 06:15:42;;;;;;;38.47;18.90;;;7.80;96.20;;;;;;5069449;28;20536;-81
2024/03/10 06:18:21;;;;;;;31.73;16.10;;;7.70;96.30;;;;;;5051692;28;20029;-81
2024/03/10 06:26:23;;;;;;;44.15;20.40;;;7.70;96.40;;;;;;5055683;28;20028;-81
2024/03/10 06:28:50;;;;;;;41.85;19.20;;;7.80;96.40;;;;;;5064646;28;20048;-82
2024/03/10 06:31:16;;;;;;;45.38;20.58;;;7.80;96.40;;;;;;5069603;28;20467;-81
2024/03/10 06:33:42;;;;;;;50.28;23.83;;;7.80;96.40;;;;;;5055862;28;20048;-82
2024/03/10 06:36:10;;;;;;;21.40;11.48;;;7.80;96.30;;;;;;5063563;28;20575;-82
2024/03/10 06:38:41;;;;;;;46.33;21.73;;;7.70;96.30;;;;;;5051787;28;20099;-82
2024/03/10 06:41:07;;;;;;;39.85;16.98;;;7.70;96.50;;;;;;5068512;28;20021;-83
2024/03/10 06:43:37;;;;;;;46.10;21.05;;;7.70;96.30;;;;;;5069313;28;20127;-81
2024/03/10 06:46:07;;;;;;;40.08;16.92;;;7.80;96.40;;;;;;5069576;28;20484;-83
2024/03/10 06:48:34;;;;;;;42.53;19.85;;;7.70;96.30;;;;;;5068679;28;20028;-84
2024/03/10 06:51:01;;;;;;;37.35;15.77;;;7.60;96.50;;;;;;5051180;28;20040;-81
2024/03/10 06:53:27;;;;;;;44.22;20.88;;;7.70;96.50;;;;;;5051699;28;20097;-83
2024/03/10 06:55:55;;;;;;;41.75;16.10;;;7.60;96.60;;;;;;5060021;28;20044;-83
2024/03/10 06:58:21;;;;;;;45.88;19.65;;;7.60;96.60;;;;;;5061370;28;20546;-81
2024/03/10 07:00:47;;;;;;;39.83;20.38;;;7.60;96.70;;;;;;5059542;28;20020;-81
2024/03/10 07:03:13;;;;;;;27.55;13.48;;;7.60;96.70;;;;;;5055644;28;20045;-82
2024/03/10 07:05:41;;;;;;;36.88;19.00;;;7.50;96.70;;;;;;5060698;28;20495;-81
2024/03/10 07:08:07;;;;;;;43.33;19.08;;;7.60;96.80;;;;;;5060942;28;20151;-81
2024/03/10 07:10:35;;;;;;;33.30;17.45;;;7.60;96.70;;;;;;5054971;28;20116;-82
2024/03/10 07:13:03;;;;;;;39.67;18.27;;;7.50;96.90;;;;;;5056865;28;20128;-81
2024/03/10 07:15:30;;;;;;;26.30;11.30;;;7.50;97.00;;;;;;5058956;28;20035;-82
2024/03/10 07:17:56;;;;;;;36.50;17.92;;;7.60;96.90;;;;;;5067779;28;20396;-82
2024/03/10 07:20:21;;;;;;;43.50;19.83;;;7.60;96.90;;;;;;5060052;28;20029;-81
2024/03/10 07:22:47;;;;;;;48.15;21.27;;;7.50;97.00;;;;;;5068150;28;20025;-80
2024/03/10 07:25:14;;;;;;;42.40;19.30;;;7.60;96.90;;;;;;5056554;28;20025;-81
2024/03/10 07:27:41;;;;;;;36.90;19.88;;;7.60;97.00;;;;;;5061455;28;20040;-81
2024/03/10 07:30:07;;;;;;;39.17;19.50;;;7.60;96.80;;;;;;5053460;28;20032;-81
2024/03/10 07:32:33;;;;;;;26.77;15.00;;;7.60;97.00;;;;;;5055110;28;20053;-82
2024/03/10 07:34:59;;;;;;;35.83;17.73;;;7.60;96.90;;;;;;5059613;28;20032;-81
2024/03/10 07:37:26;;;;;;;42.95;19.33;;;7.60;97.00;;;;;;5066242;28;20802;-82
2024/03/10 07:39:52;;;;;;;43.63;20.98;;;7.60;97.00;;;;;;5056862;28;20028;-81
2024/03/10 07:42:18;;;;;;;25.50;11.20;;;7.70;96.90;;;;;;5056350;28;20125;-81
2024/03/10 07:44:43;;;;;;;44.25;21.60;;;7.80;96.70;;;;;;5055543;28;20056;-81
2024/03/10 07:47:10;;;;;;;50.90;21.45;;;7.90;96.70;;;;;;5048364;28;20111;-81
2024/03/10 07:49:35;;;;;;;45.33;20.73;;;7.90;96.70;;;;;;5056668;28;20719;-82
2024/03/10 07:52:01;;;;;;;51.17;22.95;;;7.90;96.50;;;;;;5069281;28;20044;-81
2024/03/10 07:54:27;;;;;;;42.20;19.88;;;7.90;96.60;;;;;;5068949;28;20040;-82
2024/03/10 07:56:53;;;;;;;46.55;22.65;;;7.90;96.50;;;;;;5061672;28;20402;-80
2024/03/10 07:59:21;;;;;;;41.28;19.88;;;8.00;96.60;;;;;;5067361;28;20118;-81
2024/03/10 08:01:49;;;;;;;42.70;18.25;;;7.90;96.50;;;;;;5057562;28;20028;-82
2024/03/10 08:04:16;;;;;;;34.65;18.10;;;7.90;96.60;;;;;;5053866;28;20029;-82
2024/03/10 08:06:42;;;;;;;40.47;21.25;;;7.90;96.70;;;;;;5050786;28;20384;-82
2024/03/10 08:09:09;;;;;;;25.88;11.90;;;7.80;96.80;;;;;;5061506;28;20025;-82
2024/03/10 08:11:35;;;;;;;32.80;17.23;;;7.80;96.70;;;;;;5061412;28;20439;-82
2024/03/10 08:14:01;;;;;;;42.70;19.63;;;7.80;96.90;;;;;;5047794;28;20103;-81
2024/03/10 08:16:27;;;;;;;46.80;23.15;;;7.90;97.10;;;;;;5054029;28;20395;-82
2024/03/10 08:18:53;;;;;;;44.08;21.08;;;7.70;97.20;;;;;;5063763;28;20032;-82
2024/03/10 08:21:18;;;;;;;30.40;16.05;;;7.70;97.40;;;;;;5058131;28;20636;-81
2024/03/10 08:23:44;;;;;;;36.60;15.18;;;7.70;97.30;;;;;;5058918;28;20044;-81
2024/03/10 08:26:10;;;;;;;49.42;21.25;;;7.70;97.50;;;;;;5055351;28;20021;-82
2024/03/10 08:28:36;;;;;;;44.90;21.17;;;7.80;97.50;;;;;;5055922;28;20059;-82
2024/03/10 08:31:03;;;;;;;35.85;16.13;;;7.70;97.50;;;;;;5048378;28;20067;-81
2024/03/10 08:33:29;;;;;;;51.70;23.42;;;7.90;97.50;;;;;;5061220;28;20047;-81
2024/03/10 08:35:55;;;;;;;44.63;22.38;;;7.90;97.50;;;;;;5063880;28;20025;-83
2024/03/10 08:38:21;;;;;;;43.58;22.50;;;7.90;97.40;;;;;;5055310;28;20033;-83
2024/03/10 08:40:47;;;;;;;37.95;18.35;;;7.90;97.70;;;;;;5068209;28;20480;-81
2024/03/10 08:43:13;;;;;;;37.83;18.17;;;7.80;97.50;;;;;;5065195;28;20032;-81
2024/03/10 08:45:39;;;;;;;37.42;17.52;;;7.80;97.80;;;;;;5065452;28;20078;-83
2024/03/10 08:48:09;;;;;;;45.55;22.50;;;7.80;97.90;;;;;;5053344;28;20041;-81
2024/03/10 08:50:37;;;;;;;40.30;19.00;;;7.80;97.90;;;;;;5057470;28;20060;-82
2024/03/10 08:53:04;;;;;;;33.25;14.10;;;7.80;97.90;;;;;;5063229;28;20093;-81
2024/03/10 08:55:30;;;;;;;26.25;13.27;;;7.80;98.00;;;;;;5067343;28;20052;-81
2024/03/10 08:57:56;;;;;;;39.65;16.30;;;7.80;98.10;;;;;;5062371;28;20028;-82
2024/03/10 09:00:22;;;;;;;41.97;22.20;;;7.90;98.10;;;;;;5061723;28;20161;-82
2024/03/10 09:02:49;;;;;;;32.17;14.73;;;7.90;98.20;;;;;;5060648;28;20046;-83
2024/03/10 09:05:15;;;;;;;29.45;15.63;;;8.00;97.90;;;;;;5059347;28;20069;-81
2024/03/10 09:07:44;;;;;;;27.58;12.07;;;8.00;97.90;;;;;;5057393;28;20134;-81
2024/03/10 09:10:10;;;;;;;49.00;19.27;;;8.10;97.90;;;;;;5053453;28;20094;-81
2024/03/10 09:12:36;;;;;;;16.23;8.38;;;8.00;98.00;;;;;;5057316;28;20503;-81
2024/03/10 09:15:05;;;;;;;33.45;14.82;;;8.10;98.10;;;;;;5054976;28;20411;-81
2024/03/10 09:17:31;;;;;;;47.40;21.20;;;8.10;98.10;;;;;;5059277;28;20032;-81
2024/03/10 09:19:58;;;;;;;43.03;21.70;;;8.20;98.00;;;;;;5054917;28;20029;-80
2024/03/10 09:22:24;;;;;;;30.52;15.30;;;8.20;98.10;;;;;;5062189;28;20115;-81
2024/03/10 09:24:49;;;;;;;28.52;14.70;;;8.20;97.90;;;;;;5063007;28;20116;-80
2024/03/10 09:27:16;;;;;;;48.35;24.88;;;8.40;97.90;;;;;;5060917;28;20024;-79
2024/03/10 09:29:42;;;;;;;46.50;22.30;;;8.30;97.90;;;;;;5057684;28;20491;-80
2024/03/10 09:32:07;;;;;;;46.35;21.60;;;8.20;98.10;;;;;;5059912;28;20056;-83
2024/03/10 09:34:36;;;;;;;41.85;20.40;;;8.30;98.20;;;;;;5067747;28;20087;-83
2024/03/10 09:37:02;;;;;;;38.25;18.02;;;8.30;98.20;;;;;;5065973;28;20036;-80
2024/03/10 09:39:27;;;;;;;23.73;10.20;;;8.30;98.20;;;;;;5067286;28;20032;-80
2024/03/10 09:41:53;;;;;;;41.85;21.40;;;8.30;98.50;;;;;;5060454;28;20047;-80
2024/03/10 09:44:22;;;;;;;34.78;18.40;;;8.30;98.40;;;;;;5062450;28;20025;-80
2024/03/10 09:46:51;;;;;;;26.05;12.57;;;8.40;98.40;;;;;;5056165;28;20033;-80
2024/03/10 09:49:19;;;;;;;39.05;20.70;;;8.40;98.50;;;;;;5065540;28;20032;-80
2024/03/10 09:51:49;;;;;;;50.10;25.05;;;8.50;98.30;;;;;;5059127;28;20043;-79
2024/03/10 09:54:15;;;;;;;36.47;16.73;;;8.60;98.30;;;;;;5062588;28;20044;-79
2024/03/10 09:56:41;;;;;;;45.22;22.83;;;8.60;98.10;;;;;;5056203;28;20052;-79
2024/03/10 09:59:14;;;;;;;50.70;25.48;;;8.70;98.20;;;;;;5067011;28;20502;-79
2024/03/10 10:01:42;;;;;;;40.28;22.10;;;8.70;98.00;;;;;;5061591;28;20028;-82
2024/03/10 10:04:11;;;;;;;47.47;21.80;;;8.70;98.20;;;;;;5066178;28;20040;-79
2024/03/10 10:06:40;;;;;;;30.33;16.80;;;8.70;98.30;;;;;;5063544;28;20036;-82
2024/03/10 10:09:10;;;;;;;46.70;22.83;;;8.80;98.30;;;;;;5055949;28;20583;-81
2024/03/10 10:11:36;;;;;;;42.60;21.90;;;8.80;98.30;;;;;;5059796;28;20060;-78
2024/03/10 10:14:15;;;;;;;34.97;16.77;;;8.80;98.30;;;;;;5058013;28;20074;-78
2024/03/10 10:16:58;;;;;;;31.02;16.85;;;8.90;98.20;;;;;;5063393;28;20030;-73
2024/03/10 10:19:30;;;;;;;34.95;17.00;;;8.90;98.30;;;;;;5061102;28;20040;-85
2024/03/10 10:21:56;;;;;;;49.40;25.05;;;8.90;98.30;;;;;;5057080;28;20020;-84
2024/03/10 10:24:21;;;;;;;50.70;24.80;;;8.90;98.40;;;;;;5065601;28;20036;-80
2024/03/10 10:27:04;;;;;;;44.10;19.10;;;9.00;98.50;;;;;;5056963;28;20028;-76
2024/03/10 10:29:30;;;;;;;33.70;16.67;;;9.00;98.60;;;;;;5061215;28;20131;-83
2024/03/10 10:32:00;;;;;;;52.78;24.95;;;9.00;98.60;;;;;;5061678;28;20028;-82
2024/03/10 10:34:27;;;;;;;47.95;24.00;;;9.10;98.50;;;;;;5069140;28;20052;-83
2024/03/10 10:36:55;;;;;;;47.83;24.25;;;9.10;98.50;;;;;;5061646;28;20037;-83
2024/03/10 10:39:29;;;;;;;45.50;24.55;;;9.00;98.80;;;;;;5063195;28;20059;-82
2024/03/10 10:41:57;;;;;;;45.35;20.73;;;9.10;98.80;;;;;;5066112;28;20027;-83
2024/03/10 10:44:24;;;;;;;42.53;20.85;;;9.10;98.80;;;;;;5065793;28;20549;-82
2024/03/10 10:46:53;;;;;;;36.22;20.17;;;9.10;98.80;;;;;;5055656;28;20032;-82
2024/03/10 10:49:19;;;;;;;41.53;18.90;;;9.20;98.70;;;;;;5059084;28;20036;-82
2024/03/10 10:51:56;;;;;;;36.13;18.85;;;9.20;98.90;;;;;;5059922;28;20025;-82
2024/03/10 10:54:22;;;;;;;39.38;20.73;;;9.20;98.90;;;;;;5065814;28;20044;-83
2024/03/10 10:56:55;;;;;;;46.88;23.45;;;9.20;98.90;;;;;;5069000;28;20040;-83
2024/03/10 10:59:24;;;;;;;43.08;20.15;;;9.10;99.00;;;;;;5062946;28;20491;-82
2024/03/10 11:02:06;;;;;;;40.65;19.85;;;9.30;99.10;;;;;;5065693;28;20392;-84
2024/03/10 11:04:32;;;;;;;41.28;20.85;;;9.30;99.00;;;;;;5056362;28;20056;-80
2024/03/10 11:06:58;;;;;;;49.53;24.70;;;9.30;99.00;;;;;;5055239;28;20025;-80
2024/03/10 11:09:33;;;;;;;40.50;21.48;;;9.40;98.90;;;;;;5059287;28;20737;-79
2024/03/10 11:12:22;;;;;;;39.55;18.83;;;9.50;98.80;;;;;;5059330;28;20037;-79
2024/03/10 11:14:50;;;;;;;39.55;20.85;;;9.60;98.60;;;;;;5061530;28;20047;-82
2024/03/10 11:17:18;;;;;;;52.92;21.00;;;9.60;98.70;;;;;;5065511;28;20032;-82
2024/03/10 11:19:48;;;;;;;47.28;23.10;;;9.70;98.70;;;;;;5062491;28;20040;-76
2024/03/10 11:22:20;;;;;;;43.08;20.98;;;9.70;98.50;;;;;;5058194;28;20036;-80
2024/03/10 11:25:08;;;;;;;31.85;17.88;;;9.70;98.60;;;;;;5053919;28;20025;-81
2024/03/10 11:27:44;;;;;;;40.35;20.50;;;9.70;98.70;;;;;;5059072;28;20052;-81
2024/03/10 11:30:41;;;;;;;43.30;22.77;;;9.70;98.70;;;;;;5065656;28;20036;-82
2024/03/10 11:33:07;;;;;;;42.42;22.05;;;9.80;98.70;;;;;;5063901;28;20045;-80
2024/03/10 11:35:35;;;;;;;40.83;21.50;;;9.90;98.60;;;;;;5055498;28;20112;-81
2024/03/10 11:38:00;;;;;;;39.85;18.55;;;10.00;98.50;;;;;;5051453;28;20025;-79
2024/03/10 11:40:30;;;;;;;48.75;25.63;;;10.10;98.40;;;;;;5060746;28;20042;-80
2024/03/10 11:43:01;;;;;;;17.00;8.75;;;10.10;98.30;;;;;;5053437;28;20070;-81
2024/03/10 11:45:29;;;;;;;38.83;19.30;;;10.10;98.20;;;;;;5057450;28;20039;-81
2024/03/10 11:47:55;;;;;;;37.00;18.65;;;10.10;98.30;;;;;;5061345;28;20033;-81
2024/03/10 11:50:20;;;;;;;38.88;20.75;;;10.20;98.30;;;;;;5055566;28;20032;-81
2024/03/10 11:52:46;;;;;;;32.13;16.40;;;10.20;98.40;;;;;;5057075;28;20036;-81
2024/03/10 11:55:14;;;;;;;31.63;12.68;;;10.30;98.30;;;;;;5055371;28;20033;-81
2024/03/10 11:57:40;;;;;;;31.45;14.15;;;10.30;98.40;;;;;;5063083;28;20035;-81
2024/03/10 12:00:08;;;;;;;38.90;20.30;;;10.30;98.40;;;;;;5053810;28;20044;-77
2024/03/10 12:02:38;;;;;;;30.77;13.07;;;10.40;98.50;;;;;;5054474;28;20111;-76
2024/03/10 12:05:05;;;;;;;31.15;15.15;;;10.50;98.00;;;;;;5055498;28;20070;-82
2024/03/10 12:07:33;;;;;;;35.83;19.40;;;10.50;98.00;;;;;;5060315;28;20033;-83
2024/03/10 12:09:58;;;;;;;29.05;13.63;;;10.50;98.00;;;;;;5064399;28;20060;-77
2024/03/10 12:12:32;;;;;;;38.13;20.70;;;10.60;97.90;;;;;;5054744;28;20474;-85
2024/03/10 12:14:58;;;;;;;30.60;15.90;;;10.70;97.80;;;;;;5056558;28;20036;-86
2024/03/10 12:17:23;;;;;;;39.05;18.20;;;10.70;97.80;;;;;;5056980;28;20052;-85
2024/03/10 12:19:49;;;;;;;30.20;12.77;;;10.70;97.80;;;;;;5054720;28;20036;-86
2024/03/10 12:22:15;;;;;;;43.08;19.92;;;10.70;97.80;;;;;;5058898;28;20028;-82
2024/03/10 12:24:41;;;;;;;29.83;16.35;;;10.70;97.80;;;;;;5058815;28;20033;-80
2024/03/10 12:27:09;;;;;;;32.10;16.40;;;10.80;97.80;;;;;;5056746;28;20031;-85
2024/03/10 12:29:45;;;;;;;42.72;20.50;;;10.90;97.70;;;;;;5063021;28;20064;-87
2024/03/10 12:32:12;;;;;;;41.28;19.77;;;11.00;97.60;;;;;;5059016;28;20024;-82
2024/03/10 12:34:38;;;;;;;44.75;22.35;;;10.90;97.80;;;;;;5053129;28;20043;-82
2024/03/10 12:37:04;;;;;;;44.28;22.55;;;10.70;98.00;;;;;;5057362;28;20420;-77
2024/03/10 12:39:30;;;;;;;41.55;17.50;;;10.70;98.20;;;;;;5061160;28;20037;-81
2024/03/10 12:41:56;;;;;;;43.10;23.38;;;10.70;98.20;;;;;;5059623;28;20056;-81
2024/03/10 12:44:21;;;;;;;37.92;20.08;;;10.60;98.50;;;;;;5056752;28;20067;-85
2024/03/10 12:46:47;;;;;;;42.33;19.88;;;10.60;98.80;;;;;;5060394;28;20025;-82
2024/03/10 12:49:13;;;;;;;44.58;21.67;;;10.70;98.60;;;;;;5053467;28;20040;-83
2024/03/10 12:51:39;;;;;;;31.25;16.98;;;10.80;98.60;;;;;;5061289;28;20039;-82
2024/03/10 12:54:06;;;;;;;38.67;20.02;;;10.80;98.60;;;;;;5058392;28;20032;-83
2024/03/10 12:56:33;;;;;;;23.67;11.73;;;10.90;98.50;;;;;;5051214;28;20039;-82